Shalalth, Canada
Current Conditions -  °F | °C
As of 11:16 AM on Thursday 30 Oct 2014 (Local Time) from CYIN Reporting Station
Overcast Overcast  
Wind Chill: 37°   Ceiling: 2000
Heat Index: 43°   Visibility: 9mi
Dew Point: 36°   Wind: 12mph
Humidity: 76%   Direction: 140°SE
Pressure: 29.87"   Gusts: 21mph
Location:  50.73°N, 122.23°W
Report Text: CYIN 301816Z AUTO 14010G18KT 9SM BKN020 OVC027 06/02 A2987 RMK SLP131
Loading
Personal Weather Stations






























Interactive Weather Map New forecast layout! Learn more

10-Day Weather Forecast

Advertisements
Track Severe Weather on mobile